createdAt,value
2023-05-02T00:01:38.997Z,100704.00
2023-05-02T00:04:09.264Z,100714.00
2023-05-02T00:06:39.396Z,100701.00
2023-05-02T00:09:12.131Z,100709.00
2023-05-02T00:11:42.822Z,100709.00
2023-05-02T00:14:12.814Z,100707.00
2023-05-02T00:16:42.821Z,100701.00
2023-05-02T00:19:12.784Z,100700.00
2023-05-02T00:21:42.736Z,100699.00
2023-05-02T00:24:15.325Z,100700.00
2023-05-02T00:26:45.320Z,100697.00
2023-05-02T00:29:15.273Z,100699.00
2023-05-02T00:31:45.308Z,100697.00
2023-05-02T00:34:15.302Z,100701.00
2023-05-02T00:36:45.242Z,100702.00
2023-05-02T00:39:17.785Z,100696.00
2023-05-02T00:41:47.764Z,100688.00
2023-05-02T00:44:18.221Z,100685.00
2023-05-02T00:46:48.322Z,100687.00
2023-05-02T00:49:18.327Z,100685.00
2023-05-02T00:51:48.359Z,100672.00
2023-05-02T00:54:20.994Z,100688.00
2023-05-02T00:56:50.955Z,100685.00
2023-05-02T00:59:21.159Z,100684.00
2023-05-02T01:02:01.092Z,100687.00
2023-05-02T01:04:44.379Z,100684.00
2023-05-02T01:07:31.824Z,100680.00
2023-05-02T01:10:20.682Z,100691.00
2023-05-02T01:12:59.007Z,100685.00
2023-05-02T01:15:29.612Z,100691.00
2023-05-02T01:18:04.552Z,100698.00
2023-05-02T01:20:41.418Z,100692.00
2023-05-02T01:23:26.005Z,100695.00
2023-05-02T01:26:16.673Z,100688.00
2023-05-02T01:29:06.980Z,100693.00
2023-05-02T01:31:40.731Z,100696.00
2023-05-02T01:34:14.011Z,100694.00
2023-05-02T01:36:47.961Z,100695.00
2023-05-02T01:39:22.586Z,100696.00
2023-05-02T01:41:53.673Z,100695.00
2023-05-02T01:44:27.532Z,100696.00
2023-05-02T01:46:59.298Z,100704.00
2023-05-02T01:49:30.473Z,100708.00
2023-05-02T01:52:06.114Z,100699.00
2023-05-02T01:54:39.747Z,100712.00
2023-05-02T01:57:11.973Z,100708.00
2023-05-02T01:59:46.727Z,100708.00
2023-05-02T02:02:18.796Z,100702.00
2023-05-02T02:04:51.846Z,100706.00
2023-05-02T02:07:21.853Z,100705.00
2023-05-02T02:09:53.063Z,100704.00
2023-05-02T02:12:29.846Z,100714.00
2023-05-02T02:15:13.014Z,100713.00
2023-05-02T02:17:46.466Z,100710.00
2023-05-02T02:20:18.364Z,100712.00
2023-05-02T02:22:49.951Z,100711.00
2023-05-02T02:25:21.524Z,100713.00
2023-05-02T02:27:52.259Z,100715.00
2023-05-02T02:30:24.859Z,100714.00
2023-05-02T02:32:54.908Z,100718.00
2023-05-02T02:35:25.734Z,100722.00
2023-05-02T02:38:06.037Z,100718.00
2023-05-02T02:40:46.231Z,100726.00
2023-05-02T02:43:27.061Z,100735.00
2023-05-02T02:46:23.198Z,100745.00
2023-05-02T02:49:01.374Z,100743.00
2023-05-02T02:51:38.145Z,100749.00
2023-05-02T02:54:26.500Z,100764.00
2023-05-02T02:57:05.281Z,100766.00
2023-05-02T02:59:38.743Z,100764.00
2023-05-02T03:02:16.258Z,100778.00
2023-05-02T03:04:49.964Z,100766.00
2023-05-02T03:07:19.955Z,100772.00
2023-05-02T03:09:51.089Z,100773.00
2023-05-02T03:12:21.316Z,100777.00
2023-05-02T03:14:51.420Z,100783.00
2023-05-02T03:17:26.213Z,100784.00
2023-05-02T03:19:57.704Z,100790.00
2023-05-02T03:22:27.868Z,100805.00
2023-05-02T03:24:57.840Z,100806.00
2023-05-02T03:27:27.813Z,100810.00
2023-05-02T03:29:57.981Z,100806.00
2023-05-02T03:32:31.018Z,100812.00
2023-05-02T03:35:01.082Z,100806.00
2023-05-02T03:37:31.239Z,100815.00
2023-05-02T03:40:01.770Z,100818.00
2023-05-02T03:42:32.163Z,100823.00
2023-05-02T03:45:02.166Z,100835.00
2023-05-02T03:47:34.856Z,100835.00
2023-05-02T03:50:04.986Z,100834.00
2023-05-02T03:52:36.694Z,100847.00
2023-05-02T03:55:08.277Z,100845.00
2023-05-02T03:57:38.244Z,100855.00
2023-05-02T04:00:10.666Z,100857.00
2023-05-02T04:02:43.347Z,100858.00
2023-05-02T04:05:13.470Z,100857.00
2023-05-02T04:07:43.454Z,100864.00
2023-05-02T04:10:16.855Z,100868.00
2023-05-02T04:12:46.960Z,100876.00
2023-05-02T04:15:17.198Z,100880.00
2023-05-02T04:17:49.761Z,100888.00
2023-05-02T04:20:20.157Z,100888.00
2023-05-02T04:22:50.643Z,100885.00
2023-05-02T04:25:20.708Z,100888.00
2023-05-02T04:27:51.787Z,100894.00
2023-05-02T04:30:22.086Z,100896.00
2023-05-02T04:32:55.059Z,100904.00
2023-05-02T04:35:25.137Z,100900.00
2023-05-02T04:37:55.104Z,100907.00
2023-05-02T04:40:25.065Z,100908.00
2023-05-02T04:42:55.026Z,100921.00
2023-05-02T04:45:25.023Z,100917.00
2023-05-02T04:47:57.563Z,100936.00
2023-05-02T04:50:28.384Z,100938.00
2023-05-02T04:52:58.353Z,100934.00
2023-05-02T04:55:28.384Z,100931.00
2023-05-02T04:57:58.330Z,100941.00
2023-05-02T05:00:28.314Z,100940.00
2023-05-02T05:03:01.973Z,100936.00
2023-05-02T05:05:32.148Z,100942.00
2023-05-02T05:08:02.319Z,100948.00
2023-05-02T05:10:32.894Z,100948.00
2023-05-02T05:13:04.528Z,100959.00
2023-05-02T05:15:34.579Z,100960.00
2023-05-02T05:18:07.247Z,100965.00
2023-05-02T05:20:37.237Z,100961.00
2023-05-02T05:23:07.204Z,100967.00
2023-05-02T05:25:37.153Z,100978.00
2023-05-02T05:28:07.188Z,100986.00
2023-05-02T05:30:37.141Z,100996.00
2023-05-02T05:33:09.794Z,101003.00
2023-05-02T05:35:39.755Z,101002.00
2023-05-02T05:38:09.722Z,101013.00
2023-05-02T05:40:39.689Z,101008.00
2023-05-02T05:43:09.627Z,101014.00
2023-05-02T05:45:39.718Z,101017.00
2023-05-02T05:48:13.074Z,101017.00
2023-05-02T05:50:43.517Z,101010.00
2023-05-02T05:53:13.500Z,101019.00
2023-05-02T05:55:43.683Z,101023.00
2023-05-02T05:58:13.734Z,101028.00
2023-05-02T06:00:44.630Z,101033.00
2023-05-02T06:03:17.337Z,101032.00
2023-05-02T06:05:47.399Z,101038.00
2023-05-02T06:08:17.339Z,101041.00
2023-05-02T06:10:47.325Z,101046.00
2023-05-02T06:13:17.269Z,101056.00
2023-05-02T06:15:47.216Z,101058.00
2023-05-02T06:18:19.875Z,101059.00
2023-05-02T06:20:49.827Z,101065.00
2023-05-02T06:23:20.093Z,101075.00
2023-05-02T06:25:50.038Z,101085.00
2023-05-02T06:28:19.981Z,101076.00
2023-05-02T06:30:49.935Z,101084.00
2023-05-02T06:33:22.428Z,101091.00
2023-05-02T06:35:54.944Z,101091.00
2023-05-02T06:38:25.543Z,101100.00
2023-05-02T06:40:55.599Z,101095.00
2023-05-02T06:43:25.535Z,101109.00
2023-05-02T06:45:57.774Z,101119.00
2023-05-02T06:48:30.364Z,101121.00
2023-05-02T06:51:00.312Z,101122.00
2023-05-02T06:53:32.445Z,101118.00
2023-05-02T06:56:03.429Z,101122.00
2023-05-02T06:58:33.830Z,101128.00
2023-05-02T07:01:03.830Z,101143.00
2023-05-02T07:03:36.618Z,101152.00
2023-05-02T07:06:06.946Z,101155.00
2023-05-02T07:08:36.949Z,101154.00
2023-05-02T07:11:07.452Z,101150.00
2023-05-02T07:13:37.432Z,101162.00
2023-05-02T07:16:09.206Z,101160.00
2023-05-02T07:18:42.487Z,101167.00
2023-05-02T07:21:12.665Z,101166.00
2023-05-02T07:23:42.633Z,101167.00
2023-05-02T07:26:12.609Z,101172.00
2023-05-02T07:28:42.574Z,101174.00
2023-05-02T07:31:12.515Z,101180.00
2023-05-02T07:33:45.064Z,101184.00
2023-05-02T07:36:15.015Z,101185.00
2023-05-02T07:38:44.948Z,101183.00
2023-05-02T07:41:17.397Z,101185.00
2023-05-02T07:43:47.389Z,101189.00
2023-05-02T07:46:17.458Z,101201.00
2023-05-02T07:48:50.041Z,101205.00
2023-05-02T07:51:21.628Z,101210.00
2023-05-02T07:53:58.600Z,101209.00
2023-05-02T07:56:28.725Z,101216.00
2023-05-02T07:58:58.681Z,101212.00
2023-05-02T08:01:28.707Z,101216.00
2023-05-02T08:04:01.412Z,101223.00
2023-05-02T08:06:32.940Z,101222.00
2023-05-02T08:09:03.153Z,101219.00
2023-05-02T08:11:33.366Z,101238.00
2023-05-02T08:14:03.585Z,101228.00
2023-05-02T08:16:33.602Z,101229.00
2023-05-02T08:19:06.193Z,101239.00
2023-05-02T08:21:36.311Z,101238.00
2023-05-02T08:24:06.720Z,101238.00
2023-05-02T08:26:36.700Z,101243.00
2023-05-02T08:29:06.706Z,101243.00
2023-05-02T08:31:36.747Z,101244.00
2023-05-02T08:34:09.357Z,101251.00
2023-05-02T08:36:39.884Z,101251.00
2023-05-02T08:39:10.879Z,101245.00
2023-05-02T08:41:41.469Z,101251.00
2023-05-02T08:44:11.433Z,101256.00
2023-05-02T08:46:44.828Z,101257.00
2023-05-02T08:49:19.964Z,101261.00
2023-05-02T08:51:53.363Z,101264.00
2023-05-02T08:54:25.823Z,101276.00
2023-05-02T08:56:56.626Z,101281.00
2023-05-02T08:59:26.605Z,101283.00
2023-05-02T09:02:03.766Z,101281.00
2023-05-02T09:04:43.896Z,101290.00
2023-05-02T09:07:13.975Z,101293.00
2023-05-02T09:09:43.953Z,101299.00
2023-05-02T09:12:13.929Z,101302.00
2023-05-02T09:14:44.805Z,101299.00
2023-05-02T09:17:14.795Z,101307.00
2023-05-02T09:19:47.305Z,101305.00
2023-05-02T09:22:26.243Z,101317.00
2023-05-02T09:24:58.250Z,101321.00
2023-05-02T09:27:28.821Z,101322.00
2023-05-02T09:30:22.934Z,101324.00
2023-05-02T09:32:55.999Z,101328.00
2023-05-02T09:35:29.029Z,101330.00
2023-05-02T09:38:00.930Z,101330.00
2023-05-02T09:40:32.912Z,101327.00
2023-05-02T09:43:03.454Z,101334.00
2023-05-02T09:45:33.687Z,101334.00
2023-05-02T09:48:05.835Z,101337.00
2023-05-02T09:50:40.131Z,101336.00
2023-05-02T09:53:12.056Z,101338.00
2023-05-02T09:55:42.280Z,101344.00
2023-05-02T09:58:25.768Z,101337.00
2023-05-02T10:00:55.734Z,101345.00
2023-05-02T10:03:28.170Z,101355.00
2023-05-02T10:06:01.598Z,101349.00
2023-05-02T10:08:32.063Z,101349.00
2023-05-02T10:11:03.702Z,101352.00
2023-05-02T10:13:37.422Z,101362.00
2023-05-02T10:16:09.847Z,101360.00
2023-05-02T10:18:46.008Z,101362.00
2023-05-02T10:21:23.305Z,101370.00
2023-05-02T10:23:53.604Z,101365.00
2023-05-02T10:26:25.033Z,101378.00
2023-05-02T10:28:56.806Z,101373.00
2023-05-02T10:31:27.381Z,101373.00
2023-05-02T10:33:59.005Z,101380.00
2023-05-02T10:36:33.723Z,101382.00
2023-05-02T10:39:05.500Z,101389.00
2023-05-02T10:41:37.670Z,101387.00
2023-05-02T10:44:09.657Z,101393.00
2023-05-02T10:46:41.485Z,101392.00
2023-05-02T10:49:12.912Z,101392.00
2023-05-02T10:51:46.438Z,101399.00
2023-05-02T10:54:27.188Z,101400.00
2023-05-02T10:57:11.344Z,101400.00
2023-05-02T10:59:42.956Z,101402.00
2023-05-02T11:02:52.125Z,101416.00
2023-05-02T11:05:22.240Z,101423.00
2023-05-02T11:08:33.349Z,101419.00
2023-05-02T11:11:42.887Z,101419.00
2023-05-02T11:14:15.718Z,101426.00
2023-05-02T11:17:13.970Z,101443.00
2023-05-02T11:20:32.522Z,101457.00
2023-05-02T11:23:26.337Z,101456.00
2023-05-02T11:26:00.639Z,101454.00
2023-05-02T11:28:48.474Z,101459.00
2023-05-02T11:32:06.784Z,101464.00
2023-05-02T11:34:47.324Z,101464.00
2023-05-02T11:37:18.265Z,101469.00
2023-05-02T11:39:51.712Z,101481.00
2023-05-02T11:42:36.984Z,101483.00
2023-05-02T11:45:08.447Z,101484.00
2023-05-02T11:47:38.468Z,101507.00
2023-05-02T11:50:10.169Z,101495.00
2023-05-02T11:52:41.766Z,101498.00
2023-05-02T11:55:16.509Z,101512.00
2023-05-02T11:57:46.625Z,101517.00
2023-05-02T12:00:18.592Z,101498.00
2023-05-02T12:02:49.983Z,101517.00
2023-05-02T12:05:32.258Z,101512.00
2023-05-02T12:08:02.715Z,101516.00
2023-05-02T12:10:42.042Z,101515.00
2023-05-02T12:13:12.523Z,101520.00
2023-05-02T12:15:42.789Z,101526.00
2023-05-02T12:18:13.130Z,101515.00
2023-05-02T12:20:43.927Z,101531.00
2023-05-02T12:23:14.903Z,101530.00
2023-05-02T12:25:47.500Z,101538.00
2023-05-02T12:28:20.046Z,101538.00
2023-05-02T12:30:52.368Z,101547.00
2023-05-02T12:33:22.410Z,101549.00
2023-05-02T12:35:54.134Z,101552.00
2023-05-02T12:38:25.912Z,101546.00
2023-05-02T12:40:59.391Z,101551.00
2023-05-02T12:43:29.346Z,101556.00
2023-05-02T12:46:13.263Z,101560.00
2023-05-02T12:48:44.956Z,101553.00
2023-05-02T12:51:28.797Z,101569.00
2023-05-02T12:53:58.893Z,101560.00
2023-05-02T12:56:32.926Z,101563.00
2023-05-02T12:59:05.399Z,101558.00
2023-05-02T13:01:36.860Z,101567.00
2023-05-02T13:04:07.568Z,101574.00
2023-05-02T13:06:38.282Z,101582.00
2023-05-02T13:09:08.484Z,101574.00
2023-05-02T13:11:42.698Z,101575.00
2023-05-02T13:14:12.671Z,101578.00
2023-05-02T13:16:42.744Z,101584.00
2023-05-02T13:19:12.792Z,101584.00
2023-05-02T13:21:42.769Z,101599.00
2023-05-02T13:24:13.347Z,101586.00
2023-05-02T13:26:45.907Z,101603.00
2023-05-02T13:29:15.857Z,101594.00
2023-05-02T13:31:45.957Z,101593.00
2023-05-02T13:34:15.919Z,101588.00
2023-05-02T13:36:46.727Z,101601.00
2023-05-02T13:39:16.742Z,101594.00
2023-05-02T13:41:49.389Z,101603.00
2023-05-02T13:44:19.328Z,101605.00
2023-05-02T13:46:49.368Z,101605.00
2023-05-02T13:49:19.424Z,101603.00
2023-05-02T13:51:50.265Z,101599.00
2023-05-02T13:54:20.241Z,101605.00
2023-05-02T13:56:52.783Z,101601.00
2023-05-02T13:59:22.769Z,101609.00
2023-05-02T14:01:52.824Z,101614.00
2023-05-02T14:04:23.645Z,101617.00
2023-05-02T14:06:53.927Z,101619.00
2023-05-02T14:09:24.159Z,101626.00
2023-05-02T14:11:56.743Z,101624.00
2023-05-02T14:14:26.674Z,101637.00
2023-05-02T14:16:56.624Z,101641.00
2023-05-02T14:19:26.573Z,101630.00
2023-05-02T14:21:56.510Z,101634.00
2023-05-02T14:24:26.524Z,101639.00
2023-05-02T14:26:59.393Z,101636.00
2023-05-02T14:29:32.065Z,101641.00
2023-05-02T14:32:02.049Z,101640.00
2023-05-02T14:34:32.042Z,101646.00
2023-05-02T14:37:02.131Z,101652.00
2023-05-02T14:39:32.233Z,101652.00
2023-05-02T14:42:05.093Z,101652.00
2023-05-02T14:44:35.288Z,101658.00
2023-05-02T14:47:05.318Z,101666.00
2023-05-02T14:49:35.385Z,101662.00
2023-05-02T14:52:05.423Z,101670.00
2023-05-02T14:54:36.105Z,101677.00
2023-05-02T14:57:09.299Z,101692.00
2023-05-02T14:59:39.709Z,101685.00
2023-05-02T15:02:10.664Z,101699.00
2023-05-02T15:04:41.066Z,101686.00
2023-05-02T15:07:11.394Z,101692.00
2023-05-02T15:09:41.447Z,101698.00
2023-05-02T15:12:13.990Z,101698.00
2023-05-02T15:14:43.972Z,101703.00
2023-05-02T15:17:13.998Z,101698.00
2023-05-02T15:19:44.017Z,101697.00
2023-05-02T15:22:15.992Z,101703.00
2023-05-02T15:24:46.062Z,101708.00
2023-05-02T15:27:18.583Z,101705.00
2023-05-02T15:29:48.516Z,101708.00
2023-05-02T15:32:18.506Z,101729.00
2023-05-02T15:34:48.717Z,101724.00
2023-05-02T15:37:18.706Z,101732.00
2023-05-02T15:39:50.724Z,101720.00
2023-05-02T15:42:23.283Z,101738.00
2023-05-02T15:44:54.171Z,101731.00
2023-05-02T15:47:25.175Z,101739.00
2023-05-02T15:49:55.490Z,101736.00
2023-05-02T15:52:25.457Z,101742.00
2023-05-02T15:54:56.273Z,101736.00
2023-05-02T15:57:28.925Z,101738.00
2023-05-02T15:59:58.959Z,101735.00
2023-05-02T16:02:28.975Z,101735.00
2023-05-02T16:04:58.911Z,101738.00
2023-05-02T16:07:28.923Z,101746.00
2023-05-02T16:09:58.908Z,101741.00
2023-05-02T16:12:31.537Z,101744.00
2023-05-02T16:15:03.653Z,101757.00
2023-05-02T16:17:33.997Z,101756.00
2023-05-02T16:20:04.190Z,101759.00
2023-05-02T16:22:38.991Z,101755.00
2023-05-02T16:25:10.107Z,101756.00
2023-05-02T16:27:42.981Z,101761.00
2023-05-02T16:30:14.106Z,101762.00
2023-05-02T16:32:44.112Z,101764.00
2023-05-02T16:35:15.160Z,101757.00
2023-05-02T16:37:45.196Z,101755.00
2023-05-02T16:40:16.092Z,101760.00
2023-05-02T16:42:48.658Z,101759.00
2023-05-02T16:45:18.721Z,101759.00
2023-05-02T16:47:48.738Z,101768.00
2023-05-02T16:50:18.736Z,101757.00
2023-05-02T16:52:48.930Z,101760.00
2023-05-02T16:55:19.170Z,101761.00
2023-05-02T16:57:51.722Z,101755.00
2023-05-02T17:00:22.750Z,101766.00
2023-05-02T17:02:57.100Z,101761.00
2023-05-02T17:05:27.217Z,101756.00
2023-05-02T17:07:57.244Z,101762.00
2023-05-02T17:10:27.228Z,101767.00
2023-05-02T17:12:59.891Z,101764.00
2023-05-02T17:15:29.843Z,101773.00
2023-05-02T17:17:59.802Z,101778.00
2023-05-02T17:20:29.819Z,101769.00
2023-05-02T17:23:00.608Z,101777.00
2023-05-02T17:25:30.670Z,101772.00
2023-05-02T17:28:03.308Z,101783.00
2023-05-02T17:30:34.130Z,101775.00
2023-05-02T17:33:04.202Z,101777.00
2023-05-02T17:35:36.997Z,101772.00
2023-05-02T17:38:06.973Z,101782.00
2023-05-02T17:40:38.100Z,101789.00
2023-05-02T17:43:11.207Z,101778.00
2023-05-02T17:45:41.944Z,101790.00
2023-05-02T17:48:11.997Z,101799.00
2023-05-02T17:50:42.947Z,101798.00
2023-05-02T17:53:12.967Z,101794.00
2023-05-02T17:55:42.931Z,101793.00
2023-05-02T17:58:16.062Z,101795.00
2023-05-02T18:00:46.465Z,101798.00
2023-05-02T18:03:16.834Z,101790.00
2023-05-02T18:05:47.933Z,101803.00
2023-05-02T18:08:18.126Z,101811.00
2023-05-02T18:10:48.213Z,101802.00
2023-05-02T18:13:20.749Z,101804.00
2023-05-02T18:15:58.878Z,101811.00
2023-05-02T18:18:28.881Z,101813.00
2023-05-02T18:20:58.898Z,101817.00
2023-05-02T18:23:28.897Z,101822.00
2023-05-02T18:25:58.865Z,101820.00
2023-05-02T18:28:31.408Z,101812.00
2023-05-02T18:31:01.398Z,101811.00
2023-05-02T18:33:31.403Z,101818.00
2023-05-02T18:36:01.409Z,101818.00
2023-05-02T18:38:32.154Z,101816.00
2023-05-02T18:41:02.121Z,101814.00
2023-05-02T18:43:36.396Z,101815.00
2023-05-02T18:46:06.589Z,101815.00
2023-05-02T18:48:37.069Z,101815.00
2023-05-02T18:51:07.487Z,101823.00
2023-05-02T18:53:37.491Z,101823.00
2023-05-02T18:56:14.891Z,101828.00
2023-05-02T18:58:47.697Z,101825.00
2023-05-02T19:01:20.329Z,101830.00
2023-05-02T19:03:50.555Z,101839.00
2023-05-02T19:06:20.891Z,101839.00
2023-05-02T19:08:51.802Z,101837.00
2023-05-02T19:11:22.894Z,101835.00
2023-05-02T19:13:56.902Z,101836.00
2023-05-02T19:16:27.801Z,101846.00
2023-05-02T19:18:57.882Z,101840.00
2023-05-02T19:21:28.152Z,101847.00
2023-05-02T19:23:58.173Z,101846.00
2023-05-02T19:26:29.176Z,101852.00
2023-05-02T19:29:01.727Z,101851.00
2023-05-02T19:31:31.783Z,101864.00
2023-05-02T19:34:01.776Z,101872.00
2023-05-02T19:36:32.188Z,101876.00
2023-05-02T19:39:02.210Z,101872.00
2023-05-02T19:41:32.231Z,101884.00
2023-05-02T19:44:04.939Z,101889.00
2023-05-02T19:46:35.033Z,101881.00
2023-05-02T19:49:05.031Z,101889.00
2023-05-02T19:51:35.493Z,101881.00
2023-05-02T19:54:05.561Z,101884.00
2023-05-02T19:56:35.527Z,101871.00
2023-05-02T19:59:08.051Z,101875.00
2023-05-02T20:01:38.250Z,101884.00
2023-05-02T20:04:08.478Z,101884.00
2023-05-02T20:06:38.520Z,101881.00
2023-05-02T20:09:08.523Z,101883.00
2023-05-02T20:11:38.512Z,101889.00
2023-05-02T20:14:11.203Z,101889.00
2023-05-02T20:16:41.245Z,101895.00
2023-05-02T20:19:11.244Z,101894.00
2023-05-02T20:21:41.435Z,101899.00
2023-05-02T20:24:11.919Z,101900.00
2023-05-02T20:26:42.047Z,101890.00
2023-05-02T20:29:14.754Z,101890.00
2023-05-02T20:31:44.810Z,101894.00
2023-05-02T20:34:14.840Z,101903.00
2023-05-02T20:36:44.859Z,101902.00
2023-05-02T20:39:16.096Z,101907.00
2023-05-02T20:41:46.514Z,101911.00
2023-05-02T20:44:22.575Z,101910.00
2023-05-02T20:46:52.844Z,101919.00
2023-05-02T20:49:22.829Z,101913.00
2023-05-02T20:51:52.997Z,101920.00
2023-05-02T20:54:22.925Z,101920.00
2023-05-02T20:56:52.955Z,101918.00
2023-05-02T20:59:25.659Z,101916.00
2023-05-02T21:01:55.690Z,101925.00
2023-05-02T21:04:25.738Z,101928.00
2023-05-02T21:06:56.945Z,101921.00
2023-05-02T21:09:27.324Z,101941.00
2023-05-02T21:11:57.311Z,101941.00
2023-05-02T21:14:29.853Z,101945.00
2023-05-02T21:16:59.809Z,101934.00
2023-05-02T21:19:33.114Z,101944.00
2023-05-02T21:22:03.279Z,101946.00
2023-05-02T21:24:33.345Z,101948.00
2023-05-02T21:27:03.712Z,101958.00
2023-05-02T21:29:36.382Z,101948.00
2023-05-02T21:32:06.944Z,101954.00
2023-05-02T21:34:37.056Z,101956.00
2023-05-02T21:37:07.112Z,101948.00
2023-05-02T21:39:37.085Z,101951.00
2023-05-02T21:42:07.675Z,101954.00
2023-05-02T21:44:40.205Z,101956.00
2023-05-02T21:47:10.289Z,101949.00
2023-05-02T21:49:40.290Z,101961.00
2023-05-02T21:52:10.388Z,101950.00
2023-05-02T21:54:40.429Z,101959.00
2023-05-02T21:57:10.360Z,101958.00
2023-05-02T21:59:43.047Z,101957.00
2023-05-02T22:02:13.163Z,101954.00
2023-05-02T22:04:47.138Z,101950.00
2023-05-02T22:07:17.193Z,101955.00
2023-05-02T22:09:47.448Z,101959.00
2023-05-02T22:12:17.504Z,101950.00
2023-05-02T22:14:50.371Z,101960.00
2023-05-02T22:17:22.915Z,101965.00
2023-05-02T22:19:53.667Z,101961.00
2023-05-02T22:22:23.705Z,101965.00
2023-05-02T22:24:53.688Z,101969.00
2023-05-02T22:27:23.675Z,101968.00
2023-05-02T22:29:56.412Z,101973.00
2023-05-02T22:32:27.021Z,101977.00
2023-05-02T22:34:57.023Z,101975.00
2023-05-02T22:37:27.302Z,101976.00
2023-05-02T22:39:57.275Z,101980.00
2023-05-02T22:42:27.474Z,101985.00
2023-05-02T22:45:00.020Z,101978.00
2023-05-02T22:47:30.233Z,101984.00
2023-05-02T22:50:00.691Z,101998.00
2023-05-02T22:52:30.862Z,101991.00
2023-05-02T22:55:01.043Z,101995.00
2023-05-02T22:57:31.017Z,101995.00
2023-05-02T23:00:05.367Z,102000.00
2023-05-02T23:02:35.632Z,101998.00
2023-05-02T23:05:06.629Z,102005.00
2023-05-02T23:07:36.736Z,101992.00
2023-05-02T23:10:07.621Z,101996.00
2023-05-02T23:12:37.645Z,102001.00
2023-05-02T23:15:12.724Z,102006.00
2023-05-02T23:17:42.920Z,102003.00
2023-05-02T23:20:14.165Z,102007.00
2023-05-02T23:22:48.380Z,102012.00
2023-05-02T23:25:18.695Z,102010.00
2023-05-02T23:27:48.983Z,102011.00
2023-05-02T23:30:21.825Z,102011.00
2023-05-02T23:32:51.892Z,102009.00
2023-05-02T23:35:22.009Z,102010.00
2023-05-02T23:37:52.772Z,102014.00
2023-05-02T23:40:23.015Z,102014.00
2023-05-02T23:42:52.998Z,102005.00
2023-05-02T23:45:25.661Z,102008.00
2023-05-02T23:47:55.919Z,102011.00
2023-05-02T23:50:25.949Z,102005.00
2023-05-02T23:52:55.973Z,102007.00
2023-05-02T23:55:25.960Z,102016.00
2023-05-02T23:57:56.038Z,102012.00
